Time;durP1;ratioP1;P1;durP2;ratioP2;P2;SDS_P1;SDS_P2;PMS_P1;PMS_P2;Temp;Humidity;BMP_temperature;BMP_pressure;BME280_temperature;BME280_humidity;BME280_pressure;Samples;Min_cycle;Max_cycle;Signal;HPM_P1;HPM_P2
2021/07/11 00:02:08;;;;;;;9.75;7.47;;;;;;;14.53;76.22;100345.89;2142385;80;21083;-77
2021/07/11 00:05:15;;;;;;;8.23;6.92;;;;;;;14.46;76.26;100345.45;2167645;80;21042;-79
2021/07/11 00:08:17;;;;;;;13.53;7.33;;;;;;;14.38;76.45;100349.05;2142197;80;21135;-80
2021/07/11 00:11:18;;;;;;;10.08;6.70;;;;;;;14.39;76.45;100339.19;2143006;81;21021;-78
2021/07/11 00:14:20;;;;;;;12.45;6.78;;;;;;;14.37;76.18;100341.23;2135167;81;21057;-77
2021/07/11 00:17:25;;;;;;;15.50;7.10;;;;;;;14.30;76.50;100336.64;2140177;81;23881;-77
2021/07/11 00:20:26;;;;;;;14.50;5.65;;;;;;;14.25;76.42;100343.04;2149607;81;21050;-78
2021/07/11 00:23:28;;;;;;;9.00;5.20;;;;;;;14.19;75.99;100341.59;2148245;81;21579;-77
2021/07/11 00:26:29;;;;;;;15.48;5.78;;;;;;;14.15;76.04;100346.48;2148433;81;21678;-78
2021/07/11 00:29:31;;;;;;;10.00;6.65;;;;;;;14.08;76.02;100339.73;2140327;81;21078;-77
2021/07/11 00:32:34;;;;;;;10.18;6.78;;;;;;;14.02;76.23;100343.14;2136777;81;21531;-78
2021/07/11 00:35:36;;;;;;;10.43;5.65;;;;;;;13.96;76.24;100339.03;2138896;81;21080;-78
2021/07/11 00:38:37;;;;;;;14.83;5.75;;;;;;;13.93;76.13;100341.55;2147099;81;21577;-79
2021/07/11 00:41:41;;;;;;;11.15;6.03;;;;;;;13.90;76.07;100340.08;2142798;81;21568;-77
2021/07/11 00:44:44;;;;;;;13.03;6.35;;;;;;;13.89;76.07;100341.09;2140688;81;21142;-78
2021/07/11 00:47:46;;;;;;;9.65;6.17;;;;;;;13.89;76.06;100345.61;2125375;81;21159;-77
2021/07/11 00:50:48;;;;;;;12.98;6.75;;;;;;;13.78;76.40;100349.55;2149453;81;21105;-77
2021/07/11 00:53:53;;;;;;;10.18;6.97;;;;;;;13.70;76.56;100350.95;2147317;81;21057;-78
2021/07/11 00:56:57;;;;;;;12.03;6.90;;;;;;;13.67;76.58;100353.48;2146941;80;21030;-76
2021/07/11 00:59:59;;;;;;;7.33;5.53;;;;;;;13.63;76.77;100349.53;2143569;81;21590;-78
2021/07/11 01:03:36;;;;;;;9.63;5.47;;;;;;;13.60;76.35;100344.56;2130264;81;59558;-78
2021/07/11 01:06:42;;;;;;;14.45;5.60;;;;;;;13.57;76.23;100341.41;2101200;82;21082;-77
2021/07/11 01:09:48;;;;;;;11.88;6.05;;;;;;;13.57;76.30;100334.74;2107187;82;21057;-80
2021/07/11 01:12:54;;;;;;;14.30;6.03;;;;;;;13.57;76.47;100340.92;2099777;82;21218;-79
2021/07/11 01:16:00;;;;;;;18.92;6.53;;;;;;;13.57;76.41;100339.59;2107678;82;21575;-78
2021/07/11 01:19:10;;;;;;;14.85;5.95;;;;;;;13.47;76.55;100347.52;2096108;83;21117;-81
2021/07/11 01:22:14;;;;;;;18.27;6.83;;;;;;;13.30;76.72;100339.66;2126539;81;21076;-81
2021/07/11 01:25:38;;;;;;;17.00;6.20;;;;;;;13.27;76.98;100344.01;2120820;81;21084;-80
2021/07/11 01:28:41;;;;;;;10.43;5.90;;;;;;;13.24;76.65;100353.16;2126292;81;21091;-78
2021/07/11 01:31:44;;;;;;;15.30;4.95;;;;;;;13.21;76.78;100349.52;2091210;82;21093;-78
2021/07/11 01:34:47;;;;;;;8.30;5.92;;;;;;;13.20;76.53;100345.17;2096593;82;21641;-78
2021/07/11 01:37:52;;;;;;;17.20;7.05;;;;;;;13.16;76.99;100357.20;2095545;82;21125;-78
2021/07/11 01:40:56;;;;;;;12.35;6.97;;;;;;;13.06;77.38;100360.59;2086460;82;21082;-78
2021/07/11 01:44:00;;;;;;;8.98;6.55;;;;;;;13.08;77.89;100356.44;2092172;82;21105;-79
2021/07/11 01:47:04;;;;;;;17.73;8.00;;;;;;;13.14;77.88;100347.73;2086126;82;21562;-80
2021/07/11 01:50:08;;;;;;;14.78;5.80;;;;;;;13.10;77.96;100350.44;2085177;83;21081;-80
2021/07/11 01:53:10;;;;;;;16.93;5.85;;;;;;;13.12;77.51;100352.41;2101772;82;21106;-81
2021/07/11 01:56:14;;;;;;;13.70;6.15;;;;;;;13.08;77.07;100351.11;2095234;82;21094;-79
2021/07/11 01:59:17;;;;;;;8.73;6.12;;;;;;;13.04;77.07;100347.98;2091379;82;21561;-80
2021/07/11 02:02:21;;;;;;;8.50;4.53;;;;;;;13.03;77.33;100355.63;2086370;83;21132;-79
2021/07/11 02:05:24;;;;;;;11.90;5.15;;;;;;;13.03;77.34;100348.14;2098834;82;21096;-80
2021/07/11 02:08:27;;;;;;;12.03;5.20;;;;;;;13.00;77.11;100354.14;2095234;82;21109;-79
2021/07/11 02:11:30;;;;;;;12.73;5.30;;;;;;;12.98;76.95;100361.50;2099408;82;21130;-80
2021/07/11 02:14:38;;;;;;;12.25;5.10;;;;;;;12.96;77.07;100362.69;2098317;82;21581;-78
2021/07/11 02:17:47;;;;;;;7.87;6.03;;;;;;;12.93;76.78;100363.86;2096175;82;21089;-82
2021/07/11 02:20:51;;;;;;;7.33;4.83;;;;;;;12.93;77.25;100359.87;2088635;83;21094;-80
2021/07/11 02:23:55;;;;;;;8.95;4.08;;;;;;;12.91;77.08;100357.88;2094632;82;21034;-78
2021/07/11 02:26:58;;;;;;;7.35;6.37;;;;;;;12.87;76.83;100367.74;2092472;83;21129;-77
2021/07/11 02:30:06;;;;;;;16.12;6.03;;;;;;;12.87;77.28;100367.23;2106645;82;21092;-78
2021/07/11 02:33:11;;;;;;;19.60;5.55;;;;;;;12.82;77.45;100372.25;2093680;82;21062;-80
2021/07/11 02:36:17;;;;;;;11.63;5.90;;;;;;;12.83;77.73;100370.41;2096131;82;21120;-79
2021/07/11 02:39:22;;;;;;;9.38;5.72;;;;;;;12.81;77.65;100367.94;2127382;81;21762;-80
2021/07/11 02:42:32;;;;;;;9.53;5.25;;;;;;;12.78;77.39;100366.93;2167292;80;21070;-80
2021/07/11 02:45:36;;;;;;;10.60;5.33;;;;;;;12.76;77.30;100372.95;2181434;79;21037;-79
2021/07/11 02:48:42;;;;;;;11.25;5.50;;;;;;;12.73;77.50;100374.64;2157773;80;21464;-79
2021/07/11 02:51:49;;;;;;;9.58;5.15;;;;;;;12.69;77.46;100371.98;2174067;79;21095;-80
2021/07/11 02:55:05;;;;;;;10.32;5.25;;;;;;;12.67;77.61;100384.15;2175642;79;21017;-78
2021/07/11 02:58:12;;;;;;;8.18;5.42;;;;;;;12.60;77.41;100382.34;2146059;80;21080;-78
2021/07/11 03:01:15;;;;;;;6.33;5.00;;;;;;;12.60;77.51;100393.00;2176056;80;21789;-81
2021/07/11 03:04:22;;;;;;;7.65;5.42;;;;;;;12.60;77.60;100391.66;2169958;80;21073;-81
2021/07/11 03:07:24;;;;;;;10.30;6.20;;;;;;;12.60;77.36;100391.66;2183230;79;21681;-81
2021/07/11 03:10:27;;;;;;;10.13;7.42;;;;;;;12.60;77.85;100396.98;2176311;80;21596;-80
2021/07/11 03:13:35;;;;;;;11.43;7.60;;;;;;;12.58;77.93;100396.32;2180758;80;21064;-79
2021/07/11 03:16:43;;;;;;;12.73;7.50;;;;;;;12.57;78.43;100394.17;2176506;80;21072;-80
2021/07/11 03:19:47;;;;;;;7.50;6.75;;;;;;;12.55;78.55;100383.67;2170439;80;21058;-80
2021/07/11 03:22:52;;;;;;;12.65;6.53;;;;;;;12.60;78.69;100392.48;2115122;81;21141;-80
2021/07/11 03:25:56;;;;;;;9.23;6.17;;;;;;;12.64;78.61;100389.83;2180665;79;21089;-80
2021/07/11 03:28:58;;;;;;;9.80;6.53;;;;;;;12.69;78.54;100391.95;2180257;80;21029;-78
2021/07/11 03:32:00;;;;;;;13.55;5.12;;;;;;;12.83;78.93;100392.54;2174944;79;21037;-80
2021/07/11 03:35:05;;;;;;;6.72;5.67;;;;;;;13.07;78.51;100391.58;2165394;80;21149;-79
2021/07/11 03:38:12;;;;;;;12.65;6.20;;;;;;;13.42;78.53;100394.18;2174144;80;21108;-81
2021/07/11 03:41:18;;;;;;;7.20;4.72;;;;;;;13.83;78.40;100399.69;2180156;79;21071;-81
2021/07/11 03:44:23;;;;;;;8.40;5.50;;;;;;;14.28;78.03;100393.89;2173763;79;21101;-79
2021/07/11 03:47:30;;;;;;;10.45;5.65;;;;;;;14.70;77.70;100402.59;2184726;80;21077;-79
2021/07/11 03:50:36;;;;;;;8.50;5.25;;;;;;;15.07;77.36;100403.42;2123131;81;21084;-81
2021/07/11 03:53:40;;;;;;;5.72;4.75;;;;;;;15.50;77.00;100404.77;2078458;83;21042;-81
2021/07/11 03:56:45;;;;;;;7.95;5.10;;;;;;;15.90;76.31;100399.77;2116426;81;21069;-78
2021/07/11 03:59:48;;;;;;;11.15;5.00;;;;;;;16.26;75.78;100397.44;2080736;83;21061;-80
2021/07/11 04:02:52;;;;;;;8.63;5.22;;;;;;;16.67;75.56;100389.91;2128594;81;21082;-78
2021/07/11 04:05:55;;;;;;;8.45;5.58;;;;;;;17.19;75.14;100391.14;2137646;80;21060;-80
2021/07/11 04:09:00;;;;;;;8.15;5.12;;;;;;;17.64;74.67;100383.34;2127416;81;21023;-80
2021/07/11 04:12:02;;;;;;;9.30;5.33;;;;;;;18.11;74.13;100388.19;2113901;81;21565;-81
2021/07/11 04:15:04;;;;;;;9.43;5.20;;;;;;;18.43;73.38;100381.59;2130367;81;21361;-81
2021/07/11 04:18:13;;;;;;;6.37;4.97;;;;;;;18.79;72.80;100379.20;2143214;81;21014;-80
2021/07/11 04:21:16;;;;;;;8.70;5.20;;;;;;;19.08;72.31;100382.87;2136970;80;21065;-82
2021/07/11 04:24:19;;;;;;;7.55;5.15;;;;;;;19.31;71.01;100380.95;2142488;80;21049;-80
2021/07/11 04:27:25;;;;;;;7.40;5.30;;;;;;;19.47;71.07;100380.43;2180131;79;22270;-79
2021/07/11 04:30:27;;;;;;;8.25;5.05;;;;;;;19.69;70.42;100385.77;2181543;80;21578;-78
2021/07/11 04:33:30;;;;;;;7.40;4.95;;;;;;;20.09;70.37;100381.88;2169364;79;21084;-80
2021/07/11 04:36:32;;;;;;;8.90;5.20;;;;;;;20.43;69.34;100388.55;2166877;79;21105;-77
2021/07/11 04:39:35;;;;;;;7.45;5.42;;;;;;;20.75;69.31;100388.39;2185719;79;21072;-81
2021/07/11 04:42:36;;;;;;;6.92;4.70;;;;;;;21.30;68.97;100387.44;2161917;79;21600;-80
2021/07/11 04:45:38;;;;;;;11.88;5.60;;;;;;;21.76;68.15;100384.02;2169990;80;21081;-79
2021/07/11 04:48:39;;;;;;;9.58;5.20;;;;;;;22.19;67.49;100381.53;2174971;79;21001;-79
2021/07/11 04:51:40;;;;;;;8.35;5.33;;;;;;;22.57;66.76;100378.80;2175206;80;21116;-81
2021/07/11 04:54:42;;;;;;;12.43;5.58;;;;;;;23.04;66.35;100380.83;2170458;80;21064;-79
2021/07/11 04:57:44;;;;;;;10.53;5.28;;;;;;;23.44;65.22;100375.02;2167133;79;21565;-82
2021/07/11 05:00:45;;;;;;;7.83;5.53;;;;;;;23.76;64.38;100381.23;2179989;79;21034;-81
2021/07/11 05:03:47;;;;;;;10.10;6.22;;;;;;;24.01;63.62;100377.54;2179045;80;21116;-79
2021/07/11 05:06:48;;;;;;;6.45;5.83;;;;;;;23.73;62.02;100379.02;2187315;79;21009;-79
2021/07/11 05:09:50;;;;;;;9.00;6.60;;;;;;;23.33;60.77;100381.32;2181483;80;21034;-81
2021/07/11 05:12:52;;;;;;;8.23;5.92;;;;;;;23.10;61.68;100376.86;2160881;80;21588;-81
2021/07/11 05:15:53;;;;;;;7.60;6.05;;;;;;;23.06;60.69;100380.59;2156542;80;21023;-80
2021/07/11 05:18:57;;;;;;;8.23;6.55;;;;;;;23.23;61.70;100377.38;2167725;79;21489;-78
2021/07/11 05:21:59;;;;;;;9.23;7.40;;;;;;;23.49;61.40;100373.75;2177899;80;21068;-81
2021/07/11 05:25:00;;;;;;;6.95;6.12;;;;;;;23.76;60.50;100377.16;2176252;79;21025;-79
2021/07/11 05:28:04;;;;;;;9.70;6.35;;;;;;;23.89;60.86;100379.00;2179465;79;21016;-81
2021/07/11 05:31:07;;;;;;;7.20;6.47;;;;;;;24.34;60.55;100376.64;2166303;80;21030;-78
2021/07/11 05:34:09;;;;;;;7.25;6.40;;;;;;;24.69;59.96;100377.35;2166819;80;21080;-82
2021/07/11 05:37:10;;;;;;;7.12;5.85;;;;;;;25.03;59.69;100374.76;2174039;80;21005;-78
2021/07/11 05:40:15;;;;;;;7.65;5.10;;;;;;;25.25;58.81;100367.91;2171204;80;21025;-79
2021/07/11 05:43:16;;;;;;;6.55;5.15;;;;;;;25.37;57.70;100368.28;2184539;79;21056;-80
2021/07/11 05:46:18;;;;;;;11.53;5.05;;;;;;;25.09;56.76;100365.28;2125258;81;21115;-81
2021/07/11 05:49:19;;;;;;;6.25;5.10;;;;;;;24.97;56.27;100368.16;2175026;80;21100;-80
2021/07/11 05:52:21;;;;;;;7.20;4.25;;;;;;;24.66;56.51;100360.23;2169103;80;21850;-81
2021/07/11 05:55:23;;;;;;;7.60;4.55;;;;;;;24.75;55.80;100366.83;2163467;79;21069;-79
2021/07/11 05:58:27;;;;;;;5.20;4.12;;;;;;;24.63;56.62;100364.80;2184607;79;21048;-80
2021/07/11 06:01:28;;;;;;;5.72;4.78;;;;;;;24.49;56.20;100364.38;2171110;80;21524;-80
2021/07/11 06:04:30;;;;;;;5.08;4.00;;;;;;;24.72;56.75;100360.05;2177742;80;21092;-77
2021/07/11 06:07:31;;;;;;;4.45;4.03;;;;;;;24.73;54.92;100358.97;2181210;79;21007;-81
2021/07/11 06:10:34;;;;;;;4.55;3.92;;;;;;;24.55;54.65;100356.06;2180227;80;21334;-78
2021/07/11 06:13:35;;;;;;;6.33;3.55;;;;;;;24.30;54.61;100351.63;2109478;82;21065;-79
2021/07/11 06:16:37;;;;;;;4.33;3.00;;;;;;;24.09;53.68;100347.30;2135127;81;21006;-81
2021/07/11 06:19:38;;;;;;;6.40;3.25;;;;;;;23.77;53.26;100353.09;2133727;81;21584;-80
2021/07/11 06:22:40;;;;;;;9.05;3.15;;;;;;;23.73;54.22;100352.74;2139836;81;21539;-80
2021/07/11 06:25:42;;;;;;;4.85;3.50;;;;;;;23.87;54.84;100347.80;2139959;81;21080;-80
2021/07/11 06:28:43;;;;;;;3.80;3.50;;;;;;;24.19;54.12;100347.14;2132647;81;21075;-78
2021/07/11 06:31:45;;;;;;;4.87;2.83;;;;;;;24.21;54.41;100345.01;2134286;81;21758;-79
2021/07/11 06:34:48;;;;;;;6.67;3.35;;;;;;;24.37;53.73;100357.70;2146747;81;21154;-83
2021/07/11 06:37:52;;;;;;;6.87;2.77;;;;;;;24.21;52.67;100345.01;2141313;80;21072;-83
2021/07/11 06:40:54;;;;;;;4.25;2.45;;;;;;;23.93;51.58;100345.44;2130262;81;21113;-83
2021/07/11 06:43:55;;;;;;;4.15;2.33;;;;;;;23.69;52.17;100352.39;2125997;81;21092;-84
2021/07/11 06:47:00;;;;;;;2.55;2.15;;;;;;;23.75;52.32;100340.31;2130829;80;21607;-82
2021/07/11 06:50:06;;;;;;;5.42;2.17;;;;;;;23.87;52.19;100326.94;2144191;80;20999;-81
2021/07/11 06:53:07;;;;;;;7.00;2.35;;;;;;;23.92;51.89;100336.50;2139645;81;21141;-83
2021/07/11 06:56:09;;;;;;;5.40;2.10;;;;;;;23.96;51.20;100333.29;2137212;81;21642;-81
2021/07/11 06:59:10;;;;;;;6.45;2.40;;;;;;;24.14;52.27;100328.40;2123921;81;21045;-86
2021/07/11 07:02:12;;;;;;;2.98;2.08;;;;;;;24.47;52.34;100332.09;2177923;80;21100;-83
2021/07/11 07:05:14;;;;;;;1.92;1.82;;;;;;;24.55;51.35;100331.65;2123343;81;21092;-83
2021/07/11 07:08:16;;;;;;;3.25;2.40;;;;;;;24.85;51.14;100321.37;2113966;82;21054;-83
2021/07/11 07:11:17;;;;;;;4.62;2.70;;;;;;;24.96;51.14;100333.42;2129548;81;21073;-78
2021/07/11 07:14:19;;;;;;;6.17;2.00;;;;;;;24.90;50.49;100323.59;2138854;81;21057;-79
2021/07/11 07:17:21;;;;;;;5.03;2.20;;;;;;;24.94;51.26;100320.63;2116984;81;21558;-78
2021/07/11 07:20:22;;;;;;;2.37;1.80;;;;;;;25.14;50.10;100328.17;2110984;82;21594;-76
2021/07/11 07:23:24;;;;;;;3.12;1.98;;;;;;;25.10;48.74;100328.94;2096053;82;21125;-77
2021/07/11 07:26:25;;;;;;;8.08;1.92;;;;;;;25.14;49.93;100328.17;2101826;81;21060;-77
2021/07/11 07:29:30;;;;;;;3.45;1.75;;;;;;;25.26;49.43;100328.03;2094092;81;21098;-81
2021/07/11 07:32:31;;;;;;;4.20;1.82;;;;;;;25.36;49.94;100321.30;2095633;82;21057;-79
2021/07/11 07:35:33;;;;;;;6.78;1.95;;;;;;;25.58;48.57;100324.45;2102740;82;21152;-79
2021/07/11 07:38:34;;;;;;;6.85;1.95;;;;;;;25.64;48.83;100326.13;2098219;82;21081;-81
2021/07/11 07:41:36;;;;;;;3.45;1.87;;;;;;;25.74;47.55;100319.41;2117884;82;21634;-83
2021/07/11 07:44:38;;;;;;;1.90;1.32;;;;;;;25.83;46.77;100311.06;2103061;82;21003;-80
2021/07/11 07:47:39;;;;;;;4.03;1.95;;;;;;;25.62;47.02;100311.97;2122161;82;21516;-80
2021/07/11 07:50:41;;;;;;;2.75;2.00;;;;;;;25.57;46.77;100305.17;2127889;81;21052;-81
2021/07/11 07:53:44;;;;;;;3.90;2.02;;;;;;;25.57;47.49;100318.21;2125877;81;21551;-81
2021/07/11 07:56:46;;;;;;;1.80;1.67;;;;;;;25.72;47.33;100309.33;2121733;81;21020;-83
2021/07/11 07:59:47;;;;;;;1.85;1.75;;;;;;;25.91;47.53;100302.41;2128540;81;21064;-81
2021/07/11 08:02:49;;;;;;;;;;;;;;;26.30;46.86;100302.55;2100748;81;21779;-82
2021/07/11 08:05:51;;;;;;;4.72;2.00;;;;;;;26.31;46.23;100298.23;2136196;81;20178;-82
2021/07/11 08:08:52;;;;;;;3.33;1.70;;;;;;;26.24;46.91;100307.16;2121866;81;21120;-80
2021/07/11 08:11:54;;;;;;;2.15;1.80;;;;;;;26.22;46.42;100294.39;2118045;81;22089;-83
2021/07/11 08:14:56;;;;;;;4.75;2.08;;;;;;;26.35;45.62;100292.52;2129378;81;21077;-82
2021/07/11 08:17:57;;;;;;;5.28;2.42;;;;;;;26.43;46.04;100298.53;2119003;81;21557;-82
2021/07/11 08:21:01;;;;;;;2.92;1.90;;;;;;;26.33;45.93;100305.58;2127642;81;21011;-84
2021/07/11 08:24:03;;;;;;;3.25;2.25;;;;;;;26.28;46.59;100303.39;2130865;81;21115;-82
2021/07/11 08:27:05;;;;;;;2.17;1.98;;;;;;;26.37;45.86;100312.11;2132382;81;21151;-82
2021/07/11 08:30:10;;;;;;;5.00;1.90;;;;;;;26.42;46.07;100307.79;2116924;81;21101;-82
2021/07/11 08:33:11;;;;;;;5.50;1.92;;;;;;;26.55;45.98;100300.49;2129151;81;21500;-83
2021/07/11 08:36:13;;;;;;;7.30;2.20;;;;;;;26.65;46.24;100298.36;2114000;81;21128;-83
2021/07/11 08:39:15;;;;;;;2.45;2.05;;;;;;;26.76;46.04;100294.02;2121112;81;21028;-82
2021/07/11 08:42:19;;;;;;;12.95;2.10;;;;;;;26.90;45.96;100303.83;2131671;81;21065;-81
2021/07/11 08:45:21;;;;;;;5.10;1.70;;;;;;;26.87;44.93;100299.48;2125676;81;21004;-78
2021/07/11 08:48:22;;;;;;;9.85;1.90;;;;;;;26.83;45.58;100304.11;2128800;81;20980;-84
2021/07/11 08:51:24;;;;;;;3.83;1.95;;;;;;;26.92;45.43;100310.35;2131897;81;21053;-81
2021/07/11 08:54:26;;;;;;;5.87;1.90;;;;;;;27.12;45.65;100314.48;2133321;81;21025;-84
2021/07/11 08:57:28;;;;;;;3.08;1.62;;;;;;;27.26;45.08;100306.06;2117471;81;21097;-80
2021/07/11 09:00:36;;;;;;;2.90;1.42;;;;;;;27.27;44.51;100310.41;2136577;81;21077;-80
2021/07/11 09:03:38;;;;;;;4.78;1.50;;;;;;;27.32;44.36;100306.06;2136964;82;21422;-85
2021/07/11 09:06:48;;;;;;;6.30;1.50;;;;;;;27.49;44.54;100303.31;2142426;81;21065;-85
2021/07/11 09:09:57;;;;;;;1.40;1.30;;;;;;;27.56;43.16;100303.02;2130946;81;21028;-86
2021/07/11 09:12:59;;;;;;;1.47;1.40;;;;;;;27.65;44.27;100310.92;2145322;81;21065;-83
2021/07/11 09:16:03;;;;;;;7.42;1.60;;;;;;;27.86;43.59;100314.98;2136323;81;21153;-81
2021/07/11 09:19:10;;;;;;;6.15;1.57;;;;;;;27.68;43.17;100310.38;2124117;81;21696;-84
2021/07/11 09:22:22;;;;;;;4.08;1.50;;;;;;;27.65;43.16;100311.45;2121057;81;21482;-82
2021/07/11 09:25:24;;;;;;;3.55;1.75;;;;;;;27.57;43.41;100311.48;2130204;81;21080;-83
2021/07/11 09:28:27;;;;;;;2.17;1.15;;;;;;;27.78;43.43;100320.97;2141674;81;21051;-82
2021/07/11 09:31:30;;;;;;;2.67;1.62;;;;;;;27.99;42.69;100307.59;2136078;81;21076;-85
2021/07/11 09:34:34;;;;;;;3.45;1.57;;;;;;;28.10;42.95;100320.10;2142424;81;21684;-83
2021/07/11 09:37:38;;;;;;;4.95;1.75;;;;;;;27.89;42.64;100304.34;2134212;80;21547;-80
2021/07/11 09:40:40;;;;;;;3.42;1.87;;;;;;;28.16;42.99;100302.61;2138502;81;21053;-82
2021/07/11 09:43:42;;;;;;;3.35;2.05;;;;;;;28.35;40.84;100286.44;2133506;81;21109;-81
2021/07/11 09:46:44;;;;;;;1.87;1.77;;;;;;;28.24;42.82;100307.20;2130397;82;21048;-84
2021/07/11 09:50:14;;;;;;;2.27;1.90;;;;;;;28.09;42.82;100295.27;2138205;81;21544;-80
2021/07/11 09:53:15;;;;;;;4.22;2.10;;;;;;;28.22;42.14;100295.78;2100549;83;21185;-83
2021/07/11 09:56:34;;;;;;;2.02;1.92;;;;;;;28.65;43.09;100287.92;2094154;83;21093;-82
2021/07/11 09:59:36;;;;;;;2.90;1.50;;;;;;;28.56;41.63;100299.99;2095050;83;21098;-86
2021/07/11 10:02:40;;;;;;;1.90;1.80;;;;;;;28.07;42.06;100298.00;2129866;81;21585;-83
2021/07/11 10:05:43;;;;;;;4.60;2.10;;;;;;;27.85;42.61;100300.55;2139672;81;21626;-85
2021/07/11 10:08:45;;;;;;;1.80;1.70;;;;;;;27.84;43.09;100298.08;2149694;80;21055;-80
2021/07/11 10:11:48;;;;;;;1.90;1.80;;;;;;;27.95;43.30;100301.05;2134700;81;21137;-80
2021/07/11 10:14:50;;;;;;;3.47;1.92;;;;;;;27.42;42.21;100305.48;2084929;83;21027;-79
2021/07/11 10:18:03;;;;;;;2.30;1.70;;;;;;;27.13;43.56;100301.13;2075827;83;21067;-82
2021/07/11 10:21:05;;;;;;;2.70;1.95;;;;;;;27.51;44.54;100288.06;2080117;83;21788;-82
2021/07/11 10:24:19;;;;;;;3.02;1.85;;;;;;;27.86;43.49;100282.27;2089747;83;21121;-81
2021/07/11 10:27:27;;;;;;;1.82;1.72;;;;;;;28.09;42.96;100289.81;2127980;81;21045;-82
2021/07/11 10:30:38;;;;;;;3.00;1.47;;;;;;;27.93;42.90;100290.95;2132668;81;22352;-82
2021/07/11 10:33:44;;;;;;;3.40;1.98;;;;;;;27.68;43.48;100291.29;2132883;81;21447;-80
2021/07/11 10:36:46;;;;;;;2.20;2.00;;;;;;;27.49;43.35;100289.69;2134175;80;21131;-82
2021/07/11 10:39:53;;;;;;;2.65;2.10;;;;;;;27.71;44.64;100296.19;2125410;81;21507;-79
2021/07/11 10:42:55;;;;;;;2.77;1.95;;;;;;;27.68;43.60;100298.11;2136578;80;21106;-83
2021/07/11 10:45:56;;;;;;;2.90;1.90;;;;;;;27.62;44.24;100302.46;2143927;81;21067;-81
2021/07/11 10:49:20;;;;;;;5.35;2.22;;;;;;;27.76;45.06;100304.87;2138187;80;21022;-81
2021/07/11 10:52:26;;;;;;;2.90;2.10;;;;;;;27.83;44.07;100299.19;2135333;80;21043;-80
2021/07/11 10:55:40;;;;;;;2.47;2.37;;;;;;;27.69;43.76;100297.00;2139439;81;21617;-82
2021/07/11 10:58:46;;;;;;;2.25;2.05;;;;;;;27.67;44.77;100297.81;2144158;81;21077;-83
2021/07/11 11:01:45;;;;;;;6.00;2.60;;;;;;;27.53;45.45;100298.67;2137764;80;21073;-81
2021/07/11 11:05:14;;;;;;;3.55;2.80;;;;;;;27.56;45.31;100300.29;2129356;81;21572;-81
2021/07/11 11:08:22;;;;;;;4.22;2.85;;;;;;;27.91;43.79;100304.08;2138054;81;21121;-83
2021/07/11 11:11:30;;;;;;;4.45;2.95;;;;;;;27.60;44.90;100295.94;2127363;81;21010;-81
2021/07/11 11:14:35;;;;;;;7.53;3.10;;;;;;;27.45;44.83;100294.59;2129133;81;21596;-84
2021/07/11 11:17:37;;;;;;;6.55;2.83;;;;;;;27.59;45.50;100297.02;2137324;81;21081;-82
2021/07/11 11:20:39;;;;;;;7.22;2.75;;;;;;;28.02;45.59;100300.22;2132351;81;21558;-80
2021/07/11 11:23:50;;;;;;;7.50;2.83;;;;;;;28.48;45.26;100297.85;2139916;81;21042;-82
2021/07/11 11:26:52;;;;;;;4.45;2.98;;;;;;;28.92;45.23;100296.48;2145436;80;21093;-83
2021/07/11 11:29:55;;;;;;;2.65;2.45;;;;;;;28.72;44.45;100299.33;2142246;81;21728;-83
2021/07/11 11:33:01;;;;;;;4.42;2.50;;;;;;;28.46;43.26;100291.85;2120578;81;22403;-81
2021/07/11 11:36:05;;;;;;;3.30;2.92;;;;;;;27.88;44.16;100288.27;2134027;81;21094;-84
2021/07/11 11:39:11;;;;;;;3.50;2.80;;;;;;;27.92;44.62;100287.97;2145791;81;21068;-83
2021/07/11 11:42:13;;;;;;;4.90;2.98;;;;;;;27.89;44.66;100289.34;2124915;81;21057;-81
2021/07/11 11:45:17;;;;;;;4.40;2.80;;;;;;;28.13;44.92;100284.08;2135127;81;21050;-79
2021/07/11 11:48:20;;;;;;;2.70;2.47;;;;;;;28.39;44.55;100286.69;2129667;81;21030;-79
2021/07/11 11:51:22;;;;;;;4.85;2.92;;;;;;;28.32;43.80;100284.24;2137500;81;21620;-80
2021/07/11 11:54:30;;;;;;;3.10;2.90;;;;;;;28.11;44.24;100273.99;2126983;81;21071;-80
2021/07/11 11:57:36;;;;;;;3.50;3.20;;;;;;;27.84;44.36;100277.64;2106774;81;21126;-80
2021/07/11 12:00:38;;;;;;;4.95;2.80;;;;;;;27.72;44.50;100276.00;2147576;81;21094;-79
2021/07/11 12:03:41;;;;;;;2.80;2.60;;;;;;;27.78;44.60;100267.81;2170904;80;21052;-81
2021/07/11 12:06:52;;;;;;;4.65;3.00;;;;;;;28.26;44.71;100269.00;2167813;79;21061;-81
2021/07/11 12:09:54;;;;;;;4.28;2.87;;;;;;;28.54;43.50;100273.52;2169163;80;21052;-81
2021/07/11 12:13:03;;;;;;;3.37;3.08;;;;;;;28.27;43.30;100271.17;2172025;79;21068;-83
2021/07/11 12:16:14;;;;;;;2.80;2.60;;;;;;;28.25;43.58;100259.75;2128382;81;21097;-82
2021/07/11 12:19:17;;;;;;;4.22;3.10;;;;;;;28.37;43.86;100254.77;2071483;83;21105;-82
2021/07/11 12:22:29;;;;;;;4.45;3.00;;;;;;;28.56;44.26;100254.41;2169759;79;21044;-83
2021/07/11 12:25:33;;;;;;;3.77;3.27;;;;;;;28.46;42.86;100246.27;2177614;79;21012;-82
2021/07/11 12:28:40;;;;;;;3.70;3.10;;;;;;;28.43;42.21;100252.30;2171022;80;21059;-84
2021/07/11 12:31:41;;;;;;;6.17;3.30;;;;;;;28.46;42.63;100247.63;2163426;80;21087;-82
2021/07/11 12:34:42;;;;;;;5.37;3.30;;;;;;;28.43;43.46;100244.11;2166349;80;21029;-85
2021/07/11 12:38:00;;;;;;;3.90;3.35;;;;;;;28.59;43.91;100242.92;2161016;80;20983;-84
2021/07/11 12:41:09;;;;;;;3.47;3.00;;;;;;;28.55;43.00;100252.78;2125915;81;21070;-83
2021/07/11 12:44:13;;;;;;;4.17;2.80;;;;;;;28.16;43.01;100252.70;2126464;81;21083;-79
2021/07/11 12:47:17;;;;;;;8.23;3.40;;;;;;;28.06;43.71;100253.55;2130608;81;21151;-81
2021/07/11 12:50:35;;;;;;;4.08;3.20;;;;;;;28.08;42.71;100259.55;2099316;83;21034;-79
2021/07/11 12:53:36;;;;;;;6.20;3.20;;;;;;;27.80;43.63;100258.85;2133825;81;21596;-83
2021/07/11 12:56:42;;;;;;;4.25;3.60;;;;;;;27.53;44.30;100260.52;2133703;81;21065;-81
2021/07/11 12:59:51;;;;;;;3.45;3.15;;;;;;;27.37;44.36;100257.00;2129907;81;21036;-80
2021/07/11 13:03:01;;;;;;;4.80;3.45;;;;;;;27.30;45.19;100245.58;2128815;81;21096;-79
2021/07/11 13:06:03;;;;;;;;;;;;;;;27.33;45.33;100244.48;2146201;81;21617;-81
2021/07/11 13:09:08;;;;;;;3.80;3.50;;;;;;;27.49;46.05;100243.91;2122454;81;20174;-81
2021/07/11 13:12:11;;;;;;;4.95;3.20;;;;;;;27.59;46.07;100243.06;2110332;82;21120;-80
2021/07/11 13:15:14;;;;;;;4.30;3.60;;;;;;;27.79;45.64;100240.81;2108200;82;21060;-83
2021/07/11 13:18:16;;;;;;;3.85;3.40;;;;;;;27.73;45.01;100241.38;2098292;82;21062;-80
2021/07/11 13:21:18;;;;;;;3.85;2.95;;;;;;;27.60;45.08;100234.63;2105121;82;21113;-82
2021/07/11 13:24:23;;;;;;;5.60;3.40;;;;;;;27.51;45.59;100228.12;2096540;82;21609;-79
2021/07/11 13:27:29;;;;;;;5.72;3.35;;;;;;;27.55;44.73;100221.56;2101052;82;21066;-81
2021/07/11 13:30:32;;;;;;;3.55;3.25;;;;;;;27.49;45.12;100218.03;2072257;82;21073;-81
2021/07/11 13:33:33;;;;;;;4.95;3.58;;;;;;;27.52;45.00;100220.20;2101141;82;21702;-80
2021/07/11 13:36:35;;;;;;;7.42;3.35;;;;;;;27.61;45.47;100219.89;2113121;82;21689;-79
2021/07/11 13:39:38;;;;;;;3.10;2.90;;;;;;;27.70;44.86;100216.05;2104048;82;21040;-80
2021/07/11 13:42:40;;;;;;;3.80;3.50;;;;;;;27.84;45.17;100213.57;2123391;81;21032;-80
2021/07/11 13:45:42;;;;;;;3.80;3.50;;;;;;;27.87;44.99;100206.19;2128832;81;21128;-80
2021/07/11 13:48:43;;;;;;;3.72;3.20;;;;;;;27.97;44.50;100195.25;2134850;81;21021;-77
2021/07/11 13:51:45;;;;;;;7.53;3.40;;;;;;;27.96;44.68;100193.63;2118136;81;21154;-76
2021/07/11 13:54:46;;;;;;;3.85;3.47;;;;;;;27.88;44.45;100192.30;2154213;81;21129;-78
2021/07/11 13:57:48;;;;;;;4.92;3.30;;;;;;;27.82;44.95;100187.13;2136204;81;21027;-77
2021/07/11 14:00:50;;;;;;;5.08;3.42;;;;;;;27.74;43.94;100190.43;2069512;83;21085;-77
2021/07/11 14:03:51;;;;;;;5.92;3.27;;;;;;;27.70;44.33;100193.69;2098293;83;21026;-78
2021/07/11 14:06:55;;;;;;;3.60;3.30;;;;;;;27.62;43.49;100192.92;2089843;83;21038;-78
2021/07/11 14:09:56;;;;;;;3.90;3.47;;;;;;;27.60;43.99;100197.83;2163396;80;21092;-79
2021/07/11 14:12:59;;;;;;;4.62;3.62;;;;;;;27.61;44.62;100200.00;2176553;80;21116;-78
2021/07/11 14:16:01;;;;;;;3.60;3.30;;;;;;;27.68;43.77;100191.00;2179415;79;21013;-78